world map with EFKI marked

EFKI - Airport

This information may not be accurate or current and is not valid for navigation or flight planning. No warranty of fitness for any purpose is made or implied.

flag of Finland

Donate via PayPal

Additional information is available on the NEW Great Circle Mapper

Location
City:  Kajaani, Kainuu (Kajanaland), Finland
ICAO / IATA:EFKI / KAJ

Details
Type:Airport (Aerodrome, Airfield)
Use:Public/Civil
Latitude:64°17'08"N (64.285472)
Longitude:27°41'33"E (27.692414)
Datum:WGS 1984
Elevation:483 ft (147 m)
Runways:1
Longest:8199 × 157 ft (2499 × 48 m)

Time
Timezone:UTC+2 (DST+5)
Local Time:

Weather
METAR:EFKI  181920Z AUTO 11004KT 9999 FEW007 SCT024 OVC057 M05/M07 Q1029
TAF:EFKI  (expired)

Related Locations
Nearby:
Farthest:NZTB: 11195 mi / 18017 km
Terra Nova Bay [Mario Zucchelli Station], AQ

Find:

   beyond  
but within

Other Information
Maps:
Sources:

  


 


Great Circle Mapper   Great Circle Mapper
Great Circle Mapper FAQ   Great Circle Mapper FAQ
  Karl's Home Page
KLSē   KLSē Home
   GC on Facebook
Airlines of the World   Airlines of the World
Donate via PayPal


Copyright © 2004-2018, Karl L. Swartz. All rights reserved.
All trademarks mentioned herein belong to their respective owners.

Please see credits for attribution and copyright information.

Karl Swartz <karl@kls2.com>
  Powered by FreeBSD
Valid HTML 4.01!
Labeled with ICRA
hCard Microformat
Geo Microformat